Atkins, Virginia
Current Conditions -  °F | °C
As of 5:15 AM on Thursday 23 Oct 2014 (Local Time) from KMKJ Reporting Station
Overcast Overcast  
Wind Chill: 41°   Ceiling: 1400
Heat Index: 45°   Visibility: 10mi
Dew Point: 38°   Wind: 7mph
Humidity: 79%   Direction: 270°W
Pressure: 30.16"   Gusts: NA
Location:  36.87°N, 81.4°W
Report Text: KMKJ 230915Z AUTO 27006KT 10SM OVC014 07/04 A3016 RMK AO2 T00700035
Loading
Personal Weather Stations






























Interactive Weather Map
Tropical Storm Tracking
New forecast layout! Learn more

10-Day Weather Forecast

Advertisements
Track Severe Weather on mobile